sensor_id;sensor_type;location;lat;lon;timestamp;temperature;humidity
15115;DHT22;7658;51.456;7.622;2023-06-24T00:01:28;16.60;99.90
15115;DHT22;7658;51.456;7.622;2023-06-24T00:03:54;16.50;99.90
15115;DHT22;7658;51.456;7.622;2023-06-24T00:06:20;16.50;99.90
15115;DHT22;7658;51.456;7.622;2023-06-24T00:08:48;16.50;99.90
15115;DHT22;7658;51.456;7.622;2023-06-24T00:11:15;16.30;99.90
15115;DHT22;7658;51.456;7.622;2023-06-24T00:13:41;16.30;99.90
15115;DHT22;7658;51.456;7.622;2023-06-24T00:16:08;16.20;99.90
15115;DHT22;7658;51.456;7.622;2023-06-24T00:18:35;16.10;99.90
15115;DHT22;7658;51.456;7.622;2023-06-24T00:21:01;16.00;99.90
15115;DHT22;7658;51.456;7.622;2023-06-24T00:23:28;16.00;99.90
15115;DHT22;7658;51.456;7.622;2023-06-24T00:25:54;15.90;99.90
15115;DHT22;7658;51.456;7.622;2023-06-24T00:28:21;16.00;99.90
15115;DHT22;7658;51.456;7.622;2023-06-24T00:30:47;16.10;99.90
15115;DHT22;7658;51.456;7.622;2023-06-24T00:33:13;16.20;99.90
15115;DHT22;7658;51.456;7.622;2023-06-24T00:35:40;16.20;99.90
15115;DHT22;7658;51.456;7.622;2023-06-24T00:38:06;16.10;99.90
15115;DHT22;7658;51.456;7.622;2023-06-24T00:40:32;16.10;99.90
15115;DHT22;7658;51.456;7.622;2023-06-24T00:42:58;16.10;99.90
15115;DHT22;7658;51.456;7.622;2023-06-24T00:45:24;16.00;99.90
15115;DHT22;7658;51.456;7.622;2023-06-24T00:47:51;16.00;99.90
15115;DHT22;7658;51.456;7.622;2023-06-24T00:50:17;16.00;99.90
15115;DHT22;7658;51.456;7.622;2023-06-24T00:52:43;16.00;99.90
15115;DHT22;7658;51.456;7.622;2023-06-24T00:55:11;16.10;99.90
15115;DHT22;7658;51.456;7.622;2023-06-24T00:57:42;16.10;99.90
15115;DHT22;7658;51.456;7.622;2023-06-24T01:00:08;16.00;99.90
15115;DHT22;7658;51.456;7.622;2023-06-24T01:02:40;16.10;99.90
15115;DHT22;7658;51.456;7.622;2023-06-24T01:05:08;16.00;99.90
15115;DHT22;7658;51.456;7.622;2023-06-24T01:07:35;15.90;99.90
15115;DHT22;7658;51.456;7.622;2023-06-24T01:10:06;16.00;99.90
15115;DHT22;7658;51.456;7.622;2023-06-24T01:12:38;15.90;99.90
15115;DHT22;7658;51.456;7.622;2023-06-24T01:15:07;15.90;99.90
15115;DHT22;7658;51.456;7.622;2023-06-24T01:17:49;15.90;99.90
15115;DHT22;7658;51.456;7.622;2023-06-24T01:20:27;15.90;99.90
15115;DHT22;7658;51.456;7.622;2023-06-24T01:34:06;15.40;99.90
15115;DHT22;7658;51.456;7.622;2023-06-24T01:36:39;15.30;99.90
15115;DHT22;7658;51.456;7.622;2023-06-24T01:39:09;15.30;99.90
15115;DHT22;7658;51.456;7.622;2023-06-24T01:41:47;15.30;99.90
15115;DHT22;7658;51.456;7.622;2023-06-24T01:44:15;15.40;99.90
15115;DHT22;7658;51.456;7.622;2023-06-24T01:46:45;15.30;99.90
15115;DHT22;7658;51.456;7.622;2023-06-24T01:49:14;15.40;99.90
15115;DHT22;7658;51.456;7.622;2023-06-24T01:51:41;15.40;99.90
15115;DHT22;7658;51.456;7.622;2023-06-24T01:54:13;15.30;99.90
15115;DHT22;7658;51.456;7.622;2023-06-24T01:56:39;15.30;99.90
15115;DHT22;7658;51.456;7.622;2023-06-24T01:59:08;15.30;99.90
15115;DHT22;7658;51.456;7.622;2023-06-24T02:01:37;15.30;99.90
15115;DHT22;7658;51.456;7.622;2023-06-24T02:04:04;15.30;99.90
15115;DHT22;7658;51.456;7.622;2023-06-24T02:06:32;15.30;99.90
15115;DHT22;7658;51.456;7.622;2023-06-24T02:08:58;15.20;99.90
15115;DHT22;7658;51.456;7.622;2023-06-24T02:11:24;15.10;99.90
15115;DHT22;7658;51.456;7.622;2023-06-24T02:13:53;15.10;99.90
15115;DHT22;7658;51.456;7.622;2023-06-24T02:16:21;15.10;99.90
15115;DHT22;7658;51.456;7.622;2023-06-24T02:18:48;15.10;99.90
15115;DHT22;7658;51.456;7.622;2023-06-24T02:21:17;15.10;99.90
15115;DHT22;7658;51.456;7.622;2023-06-24T02:23:46;15.10;99.90
15115;DHT22;7658;51.456;7.622;2023-06-24T02:26:12;15.10;99.90
15115;DHT22;7658;51.456;7.622;2023-06-24T02:28:38;15.10;99.90
15115;DHT22;7658;51.456;7.622;2023-06-24T02:31:06;15.10;99.90
15115;DHT22;7658;51.456;7.622;2023-06-24T02:33:34;15.10;99.90
15115;DHT22;7658;51.456;7.622;2023-06-24T02:35:59;15.10;99.90
15115;DHT22;7658;51.456;7.622;2023-06-24T02:38:25;15.10;99.90
15115;DHT22;7658;51.456;7.622;2023-06-24T02:40:52;15.10;99.90
15115;DHT22;7658;51.456;7.622;2023-06-24T02:43:18;15.10;99.90
15115;DHT22;7658;51.456;7.622;2023-06-24T02:45:45;15.00;99.90
15115;DHT22;7658;51.456;7.622;2023-06-24T02:48:12;15.00;99.90
15115;DHT22;7658;51.456;7.622;2023-06-24T02:50:39;15.10;99.90
15115;DHT22;7658;51.456;7.622;2023-06-24T02:53:13;15.10;99.90
15115;DHT22;7658;51.456;7.622;2023-06-24T02:55:40;15.00;99.90
15115;DHT22;7658;51.456;7.622;2023-06-24T02:58:08;15.00;99.90
15115;DHT22;7658;51.456;7.622;2023-06-24T03:00:37;14.90;99.90
15115;DHT22;7658;51.456;7.622;2023-06-24T03:03:04;14.90;99.90
15115;DHT22;7658;51.456;7.622;2023-06-24T03:05:31;15.00;99.90
15115;DHT22;7658;51.456;7.622;2023-06-24T03:07:58;15.00;99.90
15115;DHT22;7658;51.456;7.622;2023-06-24T03:10:25;14.90;99.90
15115;DHT22;7658;51.456;7.622;2023-06-24T03:12:51;14.90;99.90
15115;DHT22;7658;51.456;7.622;2023-06-24T03:15:17;14.90;99.90
15115;DHT22;7658;51.456;7.622;2023-06-24T03:17:43;14.80;99.90
15115;DHT22;7658;51.456;7.622;2023-06-24T03:20:09;14.70;99.90
15115;DHT22;7658;51.456;7.622;2023-06-24T03:22:36;14.80;99.90
15115;DHT22;7658;51.456;7.622;2023-06-24T03:25:02;14.80;99.90
15115;DHT22;7658;51.456;7.622;2023-06-24T03:27:28;14.80;99.90
15115;DHT22;7658;51.456;7.622;2023-06-24T03:29:53;14.70;99.90
15115;DHT22;7658;51.456;7.622;2023-06-24T03:32:19;14.60;99.90
15115;DHT22;7658;51.456;7.622;2023-06-24T03:34:45;14.50;99.90
15115;DHT22;7658;51.456;7.622;2023-06-24T03:37:11;14.50;99.90
15115;DHT22;7658;51.456;7.622;2023-06-24T03:39:37;14.40;99.90
15115;DHT22;7658;51.456;7.622;2023-06-24T03:42:03;14.40;99.90
15115;DHT22;7658;51.456;7.622;2023-06-24T03:44:29;14.50;99.90
15115;DHT22;7658;51.456;7.622;2023-06-24T03:46:54;14.60;99.90
15115;DHT22;7658;51.456;7.622;2023-06-24T03:49:20;14.50;99.90
15115;DHT22;7658;51.456;7.622;2023-06-24T03:51:46;14.50;99.90
15115;DHT22;7658;51.456;7.622;2023-06-24T03:54:12;14.60;99.90
15115;DHT22;7658;51.456;7.622;2023-06-24T03:56:38;14.60;99.90
15115;DHT22;7658;51.456;7.622;2023-06-24T03:59:04;14.60;99.90
15115;DHT22;7658;51.456;7.622;2023-06-24T04:01:29;14.70;99.90
15115;DHT22;7658;51.456;7.622;2023-06-24T04:03:58;14.70;99.90
15115;DHT22;7658;51.456;7.622;2023-06-24T04:06:24;14.70;99.90
15115;DHT22;7658;51.456;7.622;2023-06-24T04:08:49;14.80;99.90
15115;DHT22;7658;51.456;7.622;2023-06-24T04:11:17;14.80;99.90
15115;DHT22;7658;51.456;7.622;2023-06-24T04:13:44;14.80;99.90
15115;DHT22;7658;51.456;7.622;2023-06-24T04:16:10;14.80;99.90
15115;DHT22;7658;51.456;7.622;2023-06-24T04:18:36;14.90;99.90
15115;DHT22;7658;51.456;7.622;2023-06-24T04:21:05;14.90;99.90
15115;DHT22;7658;51.456;7.622;2023-06-24T04:23:34;15.00;99.90
15115;DHT22;7658;51.456;7.622;2023-06-24T04:26:00;15.10;99.90
15115;DHT22;7658;51.456;7.622;2023-06-24T04:28:25;15.10;99.90
15115;DHT22;7658;51.456;7.622;2023-06-24T04:30:51;15.20;99.90
15115;DHT22;7658;51.456;7.622;2023-06-24T04:33:17;15.20;99.90
15115;DHT22;7658;51.456;7.622;2023-06-24T04:35:43;15.20;99.90
15115;DHT22;7658;51.456;7.622;2023-06-24T04:38:10;15.30;99.90
15115;DHT22;7658;51.456;7.622;2023-06-24T04:40:36;15.30;99.90
15115;DHT22;7658;51.456;7.622;2023-06-24T04:43:02;15.30;99.90
15115;DHT22;7658;51.456;7.622;2023-06-24T04:45:28;15.30;99.90
15115;DHT22;7658;51.456;7.622;2023-06-24T04:47:53;15.30;99.90
15115;DHT22;7658;51.456;7.622;2023-06-24T04:50:19;15.30;99.90
15115;DHT22;7658;51.456;7.622;2023-06-24T04:52:45;15.40;99.90
15115;DHT22;7658;51.456;7.622;2023-06-24T04:55:11;15.50;99.90
15115;DHT22;7658;51.456;7.622;2023-06-24T04:57:36;15.60;99.90
15115;DHT22;7658;51.456;7.622;2023-06-24T05:00:03;15.60;99.90
15115;DHT22;7658;51.456;7.622;2023-06-24T05:02:30;15.70;99.90
15115;DHT22;7658;51.456;7.622;2023-06-24T05:04:55;15.80;99.90
15115;DHT22;7658;51.456;7.622;2023-06-24T05:07:21;15.80;99.90
15115;DHT22;7658;51.456;7.622;2023-06-24T05:09:48;15.80;99.90
15115;DHT22;7658;51.456;7.622;2023-06-24T05:12:14;15.80;99.90
15115;DHT22;7658;51.456;7.622;2023-06-24T05:14:40;15.80;99.90
15115;DHT22;7658;51.456;7.622;2023-06-24T05:17:06;15.80;99.90
15115;DHT22;7658;51.456;7.622;2023-06-24T05:19:32;15.80;99.90
15115;DHT22;7658;51.456;7.622;2023-06-24T05:21:58;15.90;99.90
15115;DHT22;7658;51.456;7.622;2023-06-24T05:24:24;15.90;99.90
15115;DHT22;7658;51.456;7.622;2023-06-24T05:26:51;15.90;99.90
15115;DHT22;7658;51.456;7.622;2023-06-24T05:29:17;16.00;99.90
15115;DHT22;7658;51.456;7.622;2023-06-24T05:31:43;16.00;99.90
15115;DHT22;7658;51.456;7.622;2023-06-24T05:34:09;16.10;99.90
15115;DHT22;7658;51.456;7.622;2023-06-24T05:36:35;16.10;99.90
15115;DHT22;7658;51.456;7.622;2023-06-24T05:39:01;16.20;99.90
15115;DHT22;7658;51.456;7.622;2023-06-24T05:41:27;16.30;99.90
15115;DHT22;7658;51.456;7.622;2023-06-24T05:44:03;16.40;99.90
15115;DHT22;7658;51.456;7.622;2023-06-24T05:46:29;16.40;99.90
15115;DHT22;7658;51.456;7.622;2023-06-24T05:48:55;16.50;99.90
15115;DHT22;7658;51.456;7.622;2023-06-24T05:51:20;16.60;99.90
15115;DHT22;7658;51.456;7.622;2023-06-24T05:53:46;16.80;99.90
15115;DHT22;7658;51.456;7.622;2023-06-24T05:56:12;17.00;99.90
15115;DHT22;7658;51.456;7.622;2023-06-24T05:58:37;17.10;99.90
15115;DHT22;7658;51.456;7.622;2023-06-24T06:01:03;17.30;99.90
15115;DHT22;7658;51.456;7.622;2023-06-24T06:03:29;17.40;99.90
15115;DHT22;7658;51.456;7.622;2023-06-24T06:05:55;17.40;99.90
15115;DHT22;7658;51.456;7.622;2023-06-24T06:08:20;17.50;99.90
15115;DHT22;7658;51.456;7.622;2023-06-24T06:10:46;17.50;99.90
15115;DHT22;7658;51.456;7.622;2023-06-24T06:13:12;17.60;99.90
15115;DHT22;7658;51.456;7.622;2023-06-24T06:15:38;17.60;99.90
15115;DHT22;7658;51.456;7.622;2023-06-24T06:18:03;17.70;99.90
15115;DHT22;7658;51.456;7.622;2023-06-24T06:20:29;17.70;99.90
15115;DHT22;7658;51.456;7.622;2023-06-24T06:22:55;17.80;99.90
15115;DHT22;7658;51.456;7.622;2023-06-24T06:25:20;17.80;99.90
15115;DHT22;7658;51.456;7.622;2023-06-24T06:27:46;17.90;99.90
15115;DHT22;7658;51.456;7.622;2023-06-24T06:30:13;17.90;99.90
15115;DHT22;7658;51.456;7.622;2023-06-24T06:32:38;18.10;99.90
15115;DHT22;7658;51.456;7.622;2023-06-24T06:35:05;18.10;99.90
15115;DHT22;7658;51.456;7.622;2023-06-24T06:37:30;18.30;99.90
15115;DHT22;7658;51.456;7.622;2023-06-24T06:39:56;18.40;99.90
15115;DHT22;7658;51.456;7.622;2023-06-24T06:42:22;18.50;99.90
15115;DHT22;7658;51.456;7.622;2023-06-24T06:44:48;18.50;99.90
15115;DHT22;7658;51.456;7.622;2023-06-24T06:47:13;18.60;99.90
15115;DHT22;7658;51.456;7.622;2023-06-24T06:49:39;18.60;99.90
15115;DHT22;7658;51.456;7.622;2023-06-24T06:52:05;18.70;99.90
15115;DHT22;7658;51.456;7.622;2023-06-24T06:54:31;18.70;99.90
15115;DHT22;7658;51.456;7.622;2023-06-24T06:57:04;18.80;99.90
15115;DHT22;7658;51.456;7.622;2023-06-24T06:59:31;19.00;99.90
15115;DHT22;7658;51.456;7.622;2023-06-24T07:01:56;19.10;99.90
15115;DHT22;7658;51.456;7.622;2023-06-24T07:04:22;19.30;99.90
15115;DHT22;7658;51.456;7.622;2023-06-24T07:06:48;19.40;99.90
15115;DHT22;7658;51.456;7.622;2023-06-24T07:09:14;19.40;99.90
15115;DHT22;7658;51.456;7.622;2023-06-24T07:11:43;19.50;99.90
15115;DHT22;7658;51.456;7.622;2023-06-24T07:14:09;19.60;99.90
15115;DHT22;7658;51.456;7.622;2023-06-24T07:16:36;19.70;99.90
15115;DHT22;7658;51.456;7.622;2023-06-24T07:19:02;19.90;99.90
15115;DHT22;7658;51.456;7.622;2023-06-24T07:21:28;20.10;99.90
15115;DHT22;7658;51.456;7.622;2023-06-24T07:23:54;20.30;99.90
15115;DHT22;7658;51.456;7.622;2023-06-24T07:26:19;20.30;99.90
15115;DHT22;7658;51.456;7.622;2023-06-24T07:28:46;20.40;99.90
15115;DHT22;7658;51.456;7.622;2023-06-24T07:31:12;20.60;99.90
15115;DHT22;7658;51.456;7.622;2023-06-24T07:33:37;20.70;99.90
15115;DHT22;7658;51.456;7.622;2023-06-24T07:36:03;20.80;99.90
15115;DHT22;7658;51.456;7.622;2023-06-24T07:38:29;21.00;99.90
15115;DHT22;7658;51.456;7.622;2023-06-24T07:40:55;21.10;99.90
15115;DHT22;7658;51.456;7.622;2023-06-24T07:43:21;21.20;99.90
15115;DHT22;7658;51.456;7.622;2023-06-24T07:45:47;21.30;99.90
15115;DHT22;7658;51.456;7.622;2023-06-24T07:48:13;21.50;99.90
15115;DHT22;7658;51.456;7.622;2023-06-24T07:50:39;21.60;99.90
15115;DHT22;7658;51.456;7.622;2023-06-24T07:53:05;21.60;99.90
15115;DHT22;7658;51.456;7.622;2023-06-24T07:55:31;21.70;99.90
15115;DHT22;7658;51.456;7.622;2023-06-24T07:57:57;21.70;99.90
15115;DHT22;7658;51.456;7.622;2023-06-24T08:00:26;21.70;99.90
15115;DHT22;7658;51.456;7.622;2023-06-24T08:02:51;21.60;99.90
15115;DHT22;7658;51.456;7.622;2023-06-24T08:05:17;21.60;99.90
15115;DHT22;7658;51.456;7.622;2023-06-24T08:07:46;21.70;99.90
15115;DHT22;7658;51.456;7.622;2023-06-24T08:10:11;21.70;99.90
15115;DHT22;7658;51.456;7.622;2023-06-24T08:12:37;21.80;99.90
15115;DHT22;7658;51.456;7.622;2023-06-24T08:15:03;22.00;99.90
15115;DHT22;7658;51.456;7.622;2023-06-24T08:17:29;22.10;99.90
15115;DHT22;7658;51.456;7.622;2023-06-24T08:19:55;22.30;99.90
15115;DHT22;7658;51.456;7.622;2023-06-24T08:22:21;22.40;99.90
15115;DHT22;7658;51.456;7.622;2023-06-24T08:24:46;22.50;99.90
15115;DHT22;7658;51.456;7.622;2023-06-24T08:27:12;22.50;99.90
15115;DHT22;7658;51.456;7.622;2023-06-24T08:29:38;22.70;99.90
15115;DHT22;7658;51.456;7.622;2023-06-24T08:32:04;22.80;89.40
15115;DHT22;7658;51.456;7.622;2023-06-24T08:34:33;22.90;50.30
15115;DHT22;7658;51.456;7.622;2023-06-24T08:36:58;22.90;99.90
15115;DHT22;7658;51.456;7.622;2023-06-24T08:39:24;23.00;99.90
15115;DHT22;7658;51.456;7.622;2023-06-24T08:41:50;23.10;88.60
15115;DHT22;7658;51.456;7.622;2023-06-24T08:44:16;23.10;99.90
15115;DHT22;7658;51.456;7.622;2023-06-24T08:46:42;23.10;98.50
15115;DHT22;7658;51.456;7.622;2023-06-24T08:52:03;23.00;99.90
15115;DHT22;7658;51.456;7.622;2023-06-24T08:54:30;23.10;74.70
15115;DHT22;7658;51.456;7.622;2023-06-24T08:56:59;23.30;1.00
15115;DHT22;7658;51.456;7.622;2023-06-24T08:59:27;23.40;1.00
15115;DHT22;7658;51.456;7.622;2023-06-24T09:01:53;23.60;1.00
15115;DHT22;7658;51.456;7.622;2023-06-24T09:04:19;23.70;93.40
15115;DHT22;7658;51.456;7.622;2023-06-24T09:06:44;23.80;1.00
15115;DHT22;7658;51.456;7.622;2023-06-24T09:09:20;23.80;1.00
15115;DHT22;7658;51.456;7.622;2023-06-24T09:14:19;24.00;30.00
15115;DHT22;7658;51.456;7.622;2023-06-24T09:16:53;24.20;11.70
15115;DHT22;7658;51.456;7.622;2023-06-24T09:19:23;24.40;66.60
15115;DHT22;7658;51.456;7.622;2023-06-24T09:21:49;24.60;1.00
15115;DHT22;7658;51.456;7.622;2023-06-24T09:24:15;24.80;1.00
15115;DHT22;7658;51.456;7.622;2023-06-24T09:26:42;24.90;1.00
15115;DHT22;7658;51.456;7.622;2023-06-24T09:29:13;25.00;25.10
15115;DHT22;7658;51.456;7.622;2023-06-24T09:31:49;25.10;1.00
15115;DHT22;7658;51.456;7.622;2023-06-24T09:34:18;25.30;1.00
15115;DHT22;7658;51.456;7.622;2023-06-24T09:36:46;25.40;1.00
15115;DHT22;7658;51.456;7.622;2023-06-24T09:39:16;25.60;99.90
15115;DHT22;7658;51.456;7.622;2023-06-24T09:41:42;25.90;99.90
15115;DHT22;7658;51.456;7.622;2023-06-24T09:44:11;26.00;99.90
15115;DHT22;7658;51.456;7.622;2023-06-24T09:46:37;25.90;99.90
15115;DHT22;7658;51.456;7.622;2023-06-24T09:49:06;25.90;99.90
15115;DHT22;7658;51.456;7.622;2023-06-24T09:51:38;25.90;99.90
15115;DHT22;7658;51.456;7.622;2023-06-24T09:54:06;26.00;99.90
15115;DHT22;7658;51.456;7.622;2023-06-24T09:56:36;26.00;99.90
15115;DHT22;7658;51.456;7.622;2023-06-24T09:59:06;26.00;99.90
15115;DHT22;7658;51.456;7.622;2023-06-24T10:01:35;25.90;99.90
15115;DHT22;7658;51.456;7.622;2023-06-24T10:04:02;25.90;99.90
15115;DHT22;7658;51.456;7.622;2023-06-24T10:06:29;26.00;99.90
15115;DHT22;7658;51.456;7.622;2023-06-24T10:08:55;25.90;99.90
15115;DHT22;7658;51.456;7.622;2023-06-24T10:11:21;25.90;99.90
15115;DHT22;7658;51.456;7.622;2023-06-24T10:13:47;26.10;99.90
15115;DHT22;7658;51.456;7.622;2023-06-24T10:16:13;26.30;99.90
15115;DHT22;7658;51.456;7.622;2023-06-24T10:18:41;26.40;99.90
15115;DHT22;7658;51.456;7.622;2023-06-24T10:21:09;26.20;99.90
15115;DHT22;7658;51.456;7.622;2023-06-24T10:26:25;26.20;99.90
15115;DHT22;7658;51.456;7.622;2023-06-24T10:29:30;26.10;99.90
15115;DHT22;7658;51.456;7.622;2023-06-24T10:31:56;26.20;99.90
15115;DHT22;7658;51.456;7.622;2023-06-24T10:34:33;26.00;99.90
15115;DHT22;7658;51.456;7.622;2023-06-24T10:37:12;25.80;99.90
15115;DHT22;7658;51.456;7.622;2023-06-24T10:44:56;26.20;99.90
15115;DHT22;7658;51.456;7.622;2023-06-24T10:47:23;26.30;99.90
15115;DHT22;7658;51.456;7.622;2023-06-24T10:49:49;26.40;99.90
15115;DHT22;7658;51.456;7.622;2023-06-24T10:52:21;26.50;99.90
15115;DHT22;7658;51.456;7.622;2023-06-24T10:54:47;26.40;99.90
15115;DHT22;7658;51.456;7.622;2023-06-24T10:57:13;26.60;99.90
15115;DHT22;7658;51.456;7.622;2023-06-24T10:59:40;26.60;99.90
15115;DHT22;7658;51.456;7.622;2023-06-24T11:02:12;26.60;99.90
15115;DHT22;7658;51.456;7.622;2023-06-24T11:04:48;26.60;99.90
15115;DHT22;7658;51.456;7.622;2023-06-24T11:07:16;26.70;99.90
15115;DHT22;7658;51.456;7.622;2023-06-24T11:09:47;26.80;99.90
15115;DHT22;7658;51.456;7.622;2023-06-24T11:12:13;26.70;99.90
15115;DHT22;7658;51.456;7.622;2023-06-24T11:14:39;26.60;99.90
15115;DHT22;7658;51.456;7.622;2023-06-24T11:17:05;26.60;99.90
15115;DHT22;7658;51.456;7.622;2023-06-24T11:19:31;26.50;99.90
15115;DHT22;7658;51.456;7.622;2023-06-24T11:22:01;26.40;99.90
15115;DHT22;7658;51.456;7.622;2023-06-24T11:24:30;26.20;99.90
15115;DHT22;7658;51.456;7.622;2023-06-24T11:26:56;26.00;99.90
15115;DHT22;7658;51.456;7.622;2023-06-24T11:29:23;26.10;99.90
15115;DHT22;7658;51.456;7.622;2023-06-24T11:31:49;26.40;99.90
15115;DHT22;7658;51.456;7.622;2023-06-24T11:34:15;26.60;99.90
15115;DHT22;7658;51.456;7.622;2023-06-24T11:36:41;26.80;99.90
15115;DHT22;7658;51.456;7.622;2023-06-24T11:39:07;27.00;99.90
15115;DHT22;7658;51.456;7.622;2023-06-24T11:41:33;27.20;99.90
15115;DHT22;7658;51.456;7.622;2023-06-24T11:43:59;27.30;99.90
15115;DHT22;7658;51.456;7.622;2023-06-24T11:46:26;27.40;99.90
15115;DHT22;7658;51.456;7.622;2023-06-24T11:49:02;27.50;99.90
15115;DHT22;7658;51.456;7.622;2023-06-24T11:51:28;27.50;99.90
15115;DHT22;7658;51.456;7.622;2023-06-24T11:53:59;27.50;99.90
15115;DHT22;7658;51.456;7.622;2023-06-24T11:56:38;27.40;99.90
15115;DHT22;7658;51.456;7.622;2023-06-24T11:59:05;27.30;99.90
15115;DHT22;7658;51.456;7.622;2023-06-24T12:01:34;27.40;99.90
15115;DHT22;7658;51.456;7.622;2023-06-24T12:04:13;27.50;99.90
15115;DHT22;7658;51.456;7.622;2023-06-24T12:06:40;27.60;99.90
15115;DHT22;7658;51.456;7.622;2023-06-24T12:09:07;27.40;99.90
15115;DHT22;7658;51.456;7.622;2023-06-24T12:11:32;27.40;99.90
15115;DHT22;7658;51.456;7.622;2023-06-24T12:13:58;27.50;99.90
15115;DHT22;7658;51.456;7.622;2023-06-24T12:16:24;27.60;99.90
15115;DHT22;7658;51.456;7.622;2023-06-24T12:18:52;27.70;99.90
15115;DHT22;7658;51.456;7.622;2023-06-24T12:21:17;27.80;99.90
15115;DHT22;7658;51.456;7.622;2023-06-24T12:23:44;27.90;99.90
15115;DHT22;7658;51.456;7.622;2023-06-24T12:26:10;27.90;99.90
15115;DHT22;7658;51.456;7.622;2023-06-24T12:28:36;28.00;99.90
15115;DHT22;7658;51.456;7.622;2023-06-24T12:31:02;28.00;99.90
15115;DHT22;7658;51.456;7.622;2023-06-24T12:33:28;28.10;99.90
15115;DHT22;7658;51.456;7.622;2023-06-24T12:35:54;28.10;99.90
15115;DHT22;7658;51.456;7.622;2023-06-24T12:38:20;28.10;99.90
15115;DHT22;7658;51.456;7.622;2023-06-24T12:40:46;28.00;99.90
15115;DHT22;7658;51.456;7.622;2023-06-24T12:43:11;28.00;99.90
15115;DHT22;7658;51.456;7.622;2023-06-24T12:45:41;27.80;99.90
15115;DHT22;7658;51.456;7.622;2023-06-24T12:48:10;27.50;99.90
15115;DHT22;7658;51.456;7.622;2023-06-24T12:50:36;27.50;99.90
15115;DHT22;7658;51.456;7.622;2023-06-24T12:53:02;27.90;99.90
15115;DHT22;7658;51.456;7.622;2023-06-24T12:55:29;28.00;99.90
15115;DHT22;7658;51.456;7.622;2023-06-24T12:57:55;28.10;99.90
15115;DHT22;7658;51.456;7.622;2023-06-24T13:00:21;28.10;99.90
15115;DHT22;7658;51.456;7.622;2023-06-24T13:02:48;28.20;99.90
15115;DHT22;7658;51.456;7.622;2023-06-24T13:05:15;28.30;99.90
15115;DHT22;7658;51.456;7.622;2023-06-24T13:07:42;28.50;99.90
15115;DHT22;7658;51.456;7.622;2023-06-24T13:10:09;28.80;99.90
15115;DHT22;7658;51.456;7.622;2023-06-24T13:12:36;28.60;99.90
15115;DHT22;7658;51.456;7.622;2023-06-24T13:15:06;28.50;99.90
15115;DHT22;7658;51.456;7.622;2023-06-24T13:17:33;28.40;99.90
15115;DHT22;7658;51.456;7.622;2023-06-24T13:19:58;28.60;99.90
15115;DHT22;7658;51.456;7.622;2023-06-24T13:22:24;28.50;99.90
15115;DHT22;7658;51.456;7.622;2023-06-24T13:24:50;28.30;99.90
15115;DHT22;7658;51.456;7.622;2023-06-24T13:27:16;28.20;99.90
15115;DHT22;7658;51.456;7.622;2023-06-24T13:29:42;28.30;99.90
15115;DHT22;7658;51.456;7.622;2023-06-24T13:32:08;28.30;99.90
15115;DHT22;7658;51.456;7.622;2023-06-24T13:34:34;28.30;99.90
15115;DHT22;7658;51.456;7.622;2023-06-24T13:37:00;28.50;99.90
15115;DHT22;7658;51.456;7.622;2023-06-24T13:39:26;29.00;99.90
15115;DHT22;7658;51.456;7.622;2023-06-24T13:41:53;29.30;99.90
15115;DHT22;7658;51.456;7.622;2023-06-24T13:44:19;29.60;99.90
15115;DHT22;7658;51.456;7.622;2023-06-24T13:46:45;29.50;99.90
15115;DHT22;7658;51.456;7.622;2023-06-24T13:49:11;29.60;99.90
15115;DHT22;7658;51.456;7.622;2023-06-24T13:51:37;29.60;99.90
15115;DHT22;7658;51.456;7.622;2023-06-24T13:54:03;29.50;99.90
15115;DHT22;7658;51.456;7.622;2023-06-24T13:56:28;29.60;99.90
15115;DHT22;7658;51.456;7.622;2023-06-24T13:58:55;29.80;99.90
15115;DHT22;7658;51.456;7.622;2023-06-24T14:01:22;29.80;99.90
15115;DHT22;7658;51.456;7.622;2023-06-24T14:03:49;29.90;99.90
15115;DHT22;7658;51.456;7.622;2023-06-24T14:06:17;29.80;99.90
15115;DHT22;7658;51.456;7.622;2023-06-24T14:08:44;29.50;99.90
15115;DHT22;7658;51.456;7.622;2023-06-24T14:11:10;29.40;99.90
15115;DHT22;7658;51.456;7.622;2023-06-24T14:13:35;29.40;99.90
15115;DHT22;7658;51.456;7.622;2023-06-24T14:16:02;29.40;98.50
15115;DHT22;7658;51.456;7.622;2023-06-24T14:18:28;29.50;96.60
15115;DHT22;7658;51.456;7.622;2023-06-24T14:21:00;29.40;96.60
15115;DHT22;7658;51.456;7.622;2023-06-24T14:23:26;29.50;96.70
15115;DHT22;7658;51.456;7.622;2023-06-24T14:25:52;29.60;94.50
15115;DHT22;7658;51.456;7.622;2023-06-24T14:28:18;29.90;97.60
15115;DHT22;7658;51.456;7.622;2023-06-24T14:30:44;29.90;94.40
15115;DHT22;7658;51.456;7.622;2023-06-24T14:33:14;29.90;93.70
15115;DHT22;7658;51.456;7.622;2023-06-24T14:35:41;30.00;93.00
15115;DHT22;7658;51.456;7.622;2023-06-24T14:38:06;30.20;95.70
15115;DHT22;7658;51.456;7.622;2023-06-24T14:40:33;30.10;94.50
15115;DHT22;7658;51.456;7.622;2023-06-24T14:42:59;29.90;94.80
15115;DHT22;7658;51.456;7.622;2023-06-24T14:45:25;30.10;96.30
15115;DHT22;7658;51.456;7.622;2023-06-24T14:47:51;30.20;97.00
15115;DHT22;7658;51.456;7.622;2023-06-24T14:50:17;30.00;96.40
15115;DHT22;7658;51.456;7.622;2023-06-24T14:52:43;30.10;97.60
15115;DHT22;7658;51.456;7.622;2023-06-24T14:55:09;30.20;94.00
15115;DHT22;7658;51.456;7.622;2023-06-24T14:57:37;30.30;93.60
15115;DHT22;7658;51.456;7.622;2023-06-24T15:00:05;30.30;95.50
15115;DHT22;7658;51.456;7.622;2023-06-24T15:02:31;30.30;95.00
15115;DHT22;7658;51.456;7.622;2023-06-24T15:04:57;30.50;95.20
15115;DHT22;7658;51.456;7.622;2023-06-24T15:07:24;30.90;96.60
15115;DHT22;7658;51.456;7.622;2023-06-24T15:09:49;31.10;95.30
15115;DHT22;7658;51.456;7.622;2023-06-24T15:12:15;30.80;91.90
15115;DHT22;7658;51.456;7.622;2023-06-24T15:14:41;30.80;92.60
15115;DHT22;7658;51.456;7.622;2023-06-24T15:17:08;30.50;95.20
15115;DHT22;7658;51.456;7.622;2023-06-24T15:19:34;30.40;96.00
15115;DHT22;7658;51.456;7.622;2023-06-24T15:22:00;30.60;94.30
15115;DHT22;7658;51.456;7.622;2023-06-24T15:24:25;30.90;94.00
15115;DHT22;7658;51.456;7.622;2023-06-24T15:26:51;30.90;91.50
15115;DHT22;7658;51.456;7.622;2023-06-24T15:29:17;30.60;92.60
15115;DHT22;7658;51.456;7.622;2023-06-24T15:31:42;30.60;92.20
15115;DHT22;7658;51.456;7.622;2023-06-24T15:34:10;30.50;92.90
15115;DHT22;7658;51.456;7.622;2023-06-24T15:36:36;30.50;93.50
15115;DHT22;7658;51.456;7.622;2023-06-24T15:39:02;30.40;93.30
15115;DHT22;7658;51.456;7.622;2023-06-24T15:41:28;30.20;93.10
15115;DHT22;7658;51.456;7.622;2023-06-24T15:43:54;30.40;92.80
15115;DHT22;7658;51.456;7.622;2023-06-24T15:46:19;30.40;91.80
15115;DHT22;7658;51.456;7.622;2023-06-24T15:48:45;30.60;94.60
15115;DHT22;7658;51.456;7.622;2023-06-24T15:51:11;30.80;94.30
15115;DHT22;7658;51.456;7.622;2023-06-24T15:53:36;30.70;92.70
15115;DHT22;7658;51.456;7.622;2023-06-24T15:56:02;30.60;94.50
15115;DHT22;7658;51.456;7.622;2023-06-24T15:58:28;30.70;91.80
15115;DHT22;7658;51.456;7.622;2023-06-24T16:00:54;30.60;92.20
15115;DHT22;7658;51.456;7.622;2023-06-24T16:03:21;30.50;92.90
15115;DHT22;7658;51.456;7.622;2023-06-24T16:05:47;30.60;94.60
15115;DHT22;7658;51.456;7.622;2023-06-24T16:08:13;30.70;94.30
15115;DHT22;7658;51.456;7.622;2023-06-24T16:10:39;30.80;92.50